Terminal Aerodrome Forecast
Issued by NWS Springfield, MO

Home | Current Version | Previous Version | Text Only | Print | Product List | Glossary On
Versions: 1 2 3 4 5 6 7 8 9 10 11 12 13 14
000
FTUS43 KSGF 271700
TAFSGF
TAF
KSGF 271727Z 2718/2818 VRB05KT P6SM SKC
     FM280400 14008KT P6SM SKC
     FM280900 15008G15KT P6SM SKC
     FM281500 17012G20KT P6SM FEW250=

USA.gov is the U.S. government's official web portal to all federal, state and local government web resources and services.